createdAt,value
2018-06-13T00:02:01.497Z,14.20
2018-06-13T00:04:30.661Z,14.97
2018-06-13T00:06:59.603Z,15.63
2018-06-13T00:09:28.449Z,15.07
2018-06-13T00:11:57.376Z,14.43
2018-06-13T00:14:26.268Z,15.07
2018-06-13T00:16:55.436Z,14.80
2018-06-13T00:19:24.360Z,13.97
2018-06-13T00:21:53.263Z,15.30
2018-06-13T00:24:22.260Z,14.90
2018-06-13T00:26:51.189Z,14.70
2018-06-13T00:29:20.292Z,15.00
2018-06-13T00:31:49.237Z,15.50
2018-06-13T00:34:18.189Z,14.03
2018-06-13T00:36:47.138Z,15.73
2018-06-13T00:39:15.949Z,15.53
2018-06-13T00:41:44.901Z,14.97
2018-06-13T00:44:13.908Z,13.30
2018-06-13T00:46:43.030Z,15.50
2018-06-13T00:49:11.996Z,15.57
2018-06-13T00:51:40.859Z,14.77
2018-06-13T00:54:09.965Z,15.07
2018-06-13T00:56:38.817Z,13.90
2018-06-13T00:59:07.897Z,14.40
2018-06-13T01:01:37.052Z,16.37
2018-06-13T01:04:06.045Z,14.83
2018-06-13T01:06:35.356Z,14.03
2018-06-13T01:09:05.112Z,14.20
2018-06-13T01:11:33.987Z,14.13
2018-06-13T01:14:03.040Z,15.03
2018-06-13T01:16:31.897Z,14.40
2018-06-13T01:19:01.081Z,14.47
2018-06-13T01:21:30.109Z,16.33
2018-06-13T01:23:59.097Z,15.07
2018-06-13T01:26:28.120Z,15.57
2018-06-13T01:28:57.044Z,15.13
2018-06-13T01:31:26.141Z,16.10
2018-06-13T01:33:55.076Z,14.00
2018-06-13T01:36:29.808Z,13.87
2018-06-13T01:38:58.787Z,13.50
2018-06-13T01:41:27.675Z,14.23
2018-06-13T01:43:56.820Z,16.07
2018-06-13T01:46:25.720Z,14.57
2018-06-13T01:48:55.235Z,16.47
2018-06-13T01:51:24.373Z,15.33
2018-06-13T01:53:53.361Z,14.40
2018-06-13T01:56:22.269Z,14.83
2018-06-13T01:58:51.208Z,14.67
2018-06-13T02:01:20.409Z,14.40
2018-06-13T02:03:49.440Z,13.43
2018-06-13T02:06:18.323Z,12.67
2018-06-13T02:08:47.340Z,11.47
2018-06-13T02:11:16.322Z,12.83
2018-06-13T02:13:45.368Z,11.37
2018-06-13T02:16:14.312Z,13.37
2018-06-13T02:18:43.205Z,13.20
2018-06-13T02:21:12.183Z,11.77
2018-06-13T02:23:41.049Z,13.87
2018-06-13T02:26:09.876Z,12.43
2018-06-13T02:28:38.872Z,13.80
2018-06-13T02:31:08.017Z,12.57
2018-06-13T02:33:37.045Z,12.57
2018-06-13T02:36:06.040Z,12.63
2018-06-13T02:38:35.073Z,12.60
2018-06-13T02:41:03.981Z,11.33
2018-06-13T02:43:33.076Z,10.80
2018-06-13T02:46:02.136Z,11.90
2018-06-13T02:48:31.110Z,11.97
2018-06-13T02:51:00.077Z,10.67
2018-06-13T02:53:29.037Z,12.70
2018-06-13T02:55:58.038Z,11.87
2018-06-13T02:58:26.992Z,12.50
2018-06-13T03:00:56.141Z,11.37
2018-06-13T03:03:25.245Z,12.70
2018-06-13T03:05:54.273Z,11.73
2018-06-13T03:08:23.208Z,12.63
2018-06-13T03:10:52.273Z,12.10
2018-06-13T03:13:21.400Z,11.20
2018-06-13T03:15:50.360Z,13.37
2018-06-13T03:18:19.428Z,12.47
2018-06-13T03:20:48.432Z,12.00
2018-06-13T03:23:17.329Z,12.63
2018-06-13T03:25:46.213Z,10.87
2018-06-13T03:28:15.433Z,12.07
2018-06-13T03:30:44.396Z,11.67
2018-06-13T03:33:13.456Z,11.63
2018-06-13T03:35:42.392Z,10.63
2018-06-13T03:38:11.324Z,11.03
2018-06-13T03:40:40.184Z,11.37
2018-06-13T03:43:09.058Z,11.00
2018-06-13T03:45:38.028Z,11.53
2018-06-13T03:48:07.062Z,11.80
2018-06-13T03:50:36.045Z,12.13
2018-06-13T03:53:05.293Z,11.53
2018-06-13T03:55:34.225Z,11.83
2018-06-13T03:58:03.126Z,12.67
2018-06-13T04:00:32.148Z,12.87
2018-06-13T04:03:01.096Z,12.37
2018-06-13T04:05:30.461Z,12.47
2018-06-13T04:07:59.533Z,12.10
2018-06-13T04:10:28.496Z,12.50
2018-06-13T04:12:57.395Z,12.50
2018-06-13T04:15:26.344Z,13.73
2018-06-13T04:17:55.266Z,11.50
2018-06-13T04:20:24.152Z,12.03
2018-06-13T04:22:53.248Z,12.70
2018-06-13T04:25:22.262Z,11.70
2018-06-13T04:27:51.232Z,11.97
2018-06-13T04:30:20.428Z,13.00
2018-06-13T04:32:49.297Z,11.67
2018-06-13T04:35:18.281Z,14.37
2018-06-13T04:37:47.308Z,12.30
2018-06-13T04:40:16.168Z,12.77
2018-06-13T04:42:45.252Z,12.70
2018-06-13T04:45:14.252Z,12.67
2018-06-13T04:47:43.081Z,12.27
2018-06-13T04:50:11.857Z,11.97
2018-06-13T04:52:40.876Z,15.53
2018-06-13T04:55:09.748Z,12.90
2018-06-13T04:57:38.503Z,12.40
2018-06-13T05:00:07.405Z,13.83
2018-06-13T05:02:36.303Z,13.97
2018-06-13T05:05:05.224Z,14.93
2018-06-13T05:07:34.268Z,14.73
2018-06-13T05:10:04.005Z,15.87
2018-06-13T05:12:32.768Z,14.70
2018-06-13T05:15:01.626Z,15.93
2018-06-13T05:17:30.573Z,15.60
2018-06-13T05:19:59.512Z,13.97
2018-06-13T05:22:28.368Z,13.13
2018-06-13T05:24:57.234Z,14.40
2018-06-13T05:27:26.137Z,15.10
2018-06-13T05:29:54.909Z,14.33
2018-06-13T05:32:23.996Z,14.47
2018-06-13T05:34:52.972Z,14.80
2018-06-13T05:37:22.065Z,14.63
2018-06-13T05:39:50.876Z,14.60
2018-06-13T05:42:19.860Z,14.20
2018-06-13T05:44:49.027Z,15.07
2018-06-13T05:47:17.834Z,15.83
2018-06-13T05:49:46.771Z,15.03
2018-06-13T05:52:15.552Z,14.77
2018-06-13T05:54:44.468Z,15.73
2018-06-13T05:57:15.346Z,14.77
2018-06-13T05:59:44.277Z,13.70
2018-06-13T06:02:13.189Z,13.83
2018-06-13T06:04:42.097Z,13.93
2018-06-13T06:07:10.853Z,12.10
2018-06-13T06:09:43.279Z,13.93
2018-06-13T06:12:14.885Z,12.80
2018-06-13T06:14:46.130Z,13.43
2018-06-13T06:17:17.288Z,12.63
2018-06-13T06:19:48.051Z,12.40
2018-06-13T06:22:16.903Z,14.03
2018-06-13T06:24:46.712Z,13.87
2018-06-13T06:27:19.137Z,12.80
2018-06-13T06:29:50.760Z,11.13
2018-06-13T06:32:22.209Z,10.87
2018-06-13T06:34:51.753Z,11.60
2018-06-13T06:37:22.541Z,11.33
2018-06-13T06:39:53.732Z,10.50
2018-06-13T06:42:23.441Z,11.47
2018-06-13T06:44:54.301Z,12.60
2018-06-13T06:47:23.292Z,13.70
2018-06-13T06:49:54.521Z,15.17
2018-06-13T06:52:23.333Z,14.47
2018-06-13T06:54:54.624Z,13.60
2018-06-13T06:57:24.476Z,13.97
2018-06-13T06:59:54.376Z,12.83
2018-06-13T07:02:24.211Z,13.03
2018-06-13T07:04:53.628Z,12.67
2018-06-13T07:07:23.328Z,13.57
2018-06-13T07:09:53.428Z,13.20
2018-06-13T07:12:22.895Z,14.47
2018-06-13T07:14:52.838Z,13.23
2018-06-13T07:17:22.476Z,14.23
2018-06-13T07:19:52.118Z,15.43
2018-06-13T07:22:20.892Z,14.40
2018-06-13T07:24:49.846Z,13.83
2018-06-13T07:27:18.521Z,14.50
2018-06-13T07:29:47.260Z,14.43
2018-06-13T07:32:16.197Z,13.60
2018-06-13T07:34:45.121Z,13.40
2018-06-13T07:37:14.021Z,13.67
2018-06-13T07:39:42.764Z,13.33
2018-06-13T07:42:11.601Z,12.80
2018-06-13T07:44:40.289Z,13.43
2018-06-13T07:47:09.036Z,13.20
2018-06-13T07:49:37.865Z,12.03
2018-06-13T07:52:06.756Z,11.50
2018-06-13T07:54:35.560Z,12.60
2018-06-13T07:57:04.386Z,11.40
2018-06-13T07:59:33.176Z,10.20
2018-06-13T08:02:01.985Z,11.50
2018-06-13T08:04:30.759Z,10.10
2018-06-13T08:06:59.593Z,9.03
2018-06-13T08:09:28.430Z,9.93
2018-06-13T08:11:57.323Z,8.70
2018-06-13T08:14:26.044Z,8.80
2018-06-13T08:16:54.811Z,8.73
2018-06-13T08:19:23.617Z,7.53
2018-06-13T08:21:52.407Z,8.10
2018-06-13T08:24:21.160Z,7.70
2018-06-13T08:26:54.813Z,7.50
2018-06-13T08:29:24.057Z,7.33
2018-06-13T08:31:52.792Z,6.33
2018-06-13T08:34:21.737Z,7.10
2018-06-13T08:36:50.538Z,7.43
2018-06-13T08:39:19.352Z,8.20
2018-06-13T08:41:48.209Z,6.67
2018-06-13T08:44:17.041Z,6.23
2018-06-13T08:46:45.888Z,6.77
2018-06-13T08:49:14.677Z,6.80
2018-06-13T08:51:43.596Z,6.67
2018-06-13T08:54:12.392Z,6.10
2018-06-13T08:56:41.360Z,6.10
2018-06-13T08:59:10.164Z,6.10
2018-06-13T09:01:38.929Z,5.90
2018-06-13T09:04:07.649Z,5.63
2018-06-13T09:06:36.381Z,6.00
2018-06-13T09:09:07.570Z,6.53
2018-06-13T09:11:37.009Z,6.10
2018-06-13T09:14:06.233Z,5.00
2018-06-13T09:16:34.993Z,6.10
2018-06-13T09:19:03.697Z,4.57
2018-06-13T09:21:32.829Z,5.27
2018-06-13T09:24:01.637Z,5.57
2018-06-13T09:26:30.409Z,4.77
2018-06-13T09:28:59.209Z,4.63
2018-06-13T09:31:28.061Z,4.90
2018-06-13T09:33:56.893Z,5.30
2018-06-13T09:36:25.678Z,5.20
2018-06-13T09:38:54.373Z,5.37
2018-06-13T09:41:23.169Z,4.93
2018-06-13T09:43:52.036Z,4.73
2018-06-13T09:46:21.013Z,6.30
2018-06-13T09:48:49.781Z,5.53
2018-06-13T09:51:18.477Z,6.00
2018-06-13T09:53:47.300Z,5.40
2018-06-13T09:56:16.064Z,5.80
2018-06-13T09:58:50.272Z,5.60
2018-06-13T10:01:24.205Z,5.73
2018-06-13T10:03:53.172Z,5.37
2018-06-13T10:06:21.896Z,4.77
2018-06-13T10:08:50.590Z,5.23
2018-06-13T10:11:19.495Z,4.17
2018-06-13T10:13:48.221Z,4.70
2018-06-13T10:16:18.202Z,4.70
2018-06-13T10:18:47.017Z,5.53
2018-06-13T10:21:15.810Z,5.37
2018-06-13T10:23:44.721Z,5.13
2018-06-13T10:26:13.609Z,5.07
2018-06-13T10:28:42.422Z,5.10
2018-06-13T10:31:11.109Z,5.30
2018-06-13T10:33:40.073Z,6.30
2018-06-13T10:36:08.897Z,5.57
2018-06-13T10:38:37.576Z,6.10
2018-06-13T10:41:06.304Z,5.13
2018-06-13T10:43:35.034Z,6.03
2018-06-13T10:46:03.921Z,6.27
2018-06-13T10:48:32.652Z,5.90
2018-06-13T10:51:01.364Z,5.57
2018-06-13T10:53:30.093Z,6.40
2018-06-13T10:55:58.781Z,6.67
2018-06-13T10:58:27.644Z,5.13
2018-06-13T11:00:56.425Z,4.67
2018-06-13T11:03:25.120Z,4.60
2018-06-13T11:05:53.878Z,4.80
2018-06-13T11:08:22.599Z,6.13
2018-06-13T11:10:51.513Z,5.50
2018-06-13T11:13:20.261Z,5.90
2018-06-13T11:15:51.518Z,5.80
2018-06-13T11:18:20.253Z,4.83
2018-06-13T11:20:48.961Z,5.47
2018-06-13T11:23:17.690Z,5.83
2018-06-13T11:25:46.392Z,6.40
2018-06-13T11:28:15.164Z,5.30
2018-06-13T11:30:44.340Z,5.83
2018-06-13T11:33:18.660Z,5.20
2018-06-13T11:35:47.373Z,6.07
2018-06-13T11:38:16.081Z,5.80
2018-06-13T11:40:44.980Z,5.50
2018-06-13T11:43:14.230Z,5.77
2018-06-13T11:45:42.997Z,5.43
2018-06-13T11:48:11.716Z,6.33
2018-06-13T11:50:40.382Z,5.10
2018-06-13T11:53:09.104Z,5.00
2018-06-13T11:55:37.795Z,5.10
2018-06-13T11:58:06.791Z,6.10
2018-06-13T12:00:35.492Z,5.60
2018-06-13T12:03:04.197Z,5.80
2018-06-13T12:05:32.952Z,6.47
2018-06-13T12:08:01.698Z,5.67
2018-06-13T12:10:30.788Z,5.20
2018-06-13T12:12:59.780Z,6.33
2018-06-13T12:15:28.797Z,5.70
2018-06-13T12:17:57.614Z,6.00
2018-06-13T12:20:26.492Z,6.23
2018-06-13T12:22:55.477Z,6.03
2018-06-13T12:25:24.267Z,6.10
2018-06-13T12:27:53.732Z,6.30
2018-06-13T12:30:22.579Z,6.23
2018-06-13T12:32:51.410Z,6.70
2018-06-13T12:35:20.405Z,7.67
2018-06-13T12:37:49.297Z,6.63
2018-06-13T12:40:18.266Z,7.73
2018-06-13T12:42:47.131Z,6.97
2018-06-13T12:45:15.821Z,7.40
2018-06-13T12:47:44.981Z,6.27
2018-06-13T12:50:13.886Z,6.00
2018-06-13T12:52:42.643Z,6.67
2018-06-13T12:55:11.470Z,6.80
2018-06-13T12:57:40.181Z,6.53
2018-06-13T13:00:09.292Z,7.60
2018-06-13T13:02:38.207Z,6.30
2018-06-13T13:05:07.149Z,6.37
2018-06-13T13:07:35.918Z,6.17
2018-06-13T13:10:05.031Z,6.03
2018-06-13T13:12:33.933Z,5.47
2018-06-13T13:15:02.654Z,6.30
2018-06-13T13:17:31.445Z,5.43
2018-06-13T13:20:00.307Z,5.80
2018-06-13T13:22:29.012Z,5.60
2018-06-13T13:24:58.024Z,6.60
2018-06-13T13:27:26.712Z,6.00
2018-06-13T13:29:55.393Z,6.00
2018-06-13T13:32:24.089Z,6.00
2018-06-13T13:34:52.864Z,5.70
2018-06-13T13:37:28.257Z,6.00
2018-06-13T13:39:56.990Z,4.90
2018-06-13T13:42:25.812Z,5.50
2018-06-13T13:44:54.530Z,5.47
2018-06-13T13:47:23.236Z,5.83
2018-06-13T13:49:52.126Z,4.60
2018-06-13T13:52:20.937Z,4.77
2018-06-13T13:54:49.660Z,4.30
2018-06-13T13:57:18.440Z,3.83
2018-06-13T13:59:47.185Z,3.73
2018-06-13T14:02:16.345Z,4.90
2018-06-13T14:04:45.178Z,3.30
2018-06-13T14:07:13.962Z,3.93
2018-06-13T14:09:42.788Z,4.17
2018-06-13T14:12:11.795Z,4.03
2018-06-13T14:14:40.701Z,4.60
2018-06-13T14:17:09.409Z,4.73
2018-06-13T14:19:38.209Z,5.83
2018-06-13T14:22:07.080Z,5.90
2018-06-13T14:24:35.731Z,4.50
2018-06-13T14:27:04.649Z,4.57
2018-06-13T14:29:33.379Z,3.83
2018-06-13T14:32:02.065Z,4.10
2018-06-13T14:34:30.784Z,3.60
2018-06-13T14:36:59.559Z,3.70
2018-06-13T14:39:28.622Z,4.40
2018-06-13T14:41:57.421Z,4.00
2018-06-13T14:44:26.208Z,3.97
2018-06-13T14:46:54.948Z,3.53
2018-06-13T14:49:23.625Z,3.33
2018-06-13T14:51:55.199Z,4.13
2018-06-13T14:54:23.895Z,4.03
2018-06-13T14:56:52.728Z,4.27
2018-06-13T14:59:21.433Z,3.70
2018-06-13T15:01:50.688Z,3.83
2018-06-13T15:04:24.729Z,4.17
2018-06-13T15:06:53.489Z,4.80
2018-06-13T15:09:22.281Z,4.03
2018-06-13T15:11:51.100Z,3.80
2018-06-13T15:14:19.796Z,4.03
2018-06-13T15:16:48.744Z,3.57
2018-06-13T15:19:17.568Z,3.80
2018-06-13T15:21:46.471Z,3.87
2018-06-13T15:24:15.236Z,4.20
2018-06-13T15:26:44.192Z,3.87
2018-06-13T15:29:13.505Z,3.07
2018-06-13T15:31:42.288Z,3.67
2018-06-13T15:34:10.974Z,3.73
2018-06-13T15:36:39.815Z,4.20
2018-06-13T15:39:11.268Z,4.13
2018-06-13T15:41:40.148Z,4.53
2018-06-13T15:44:08.937Z,3.80
2018-06-13T15:46:37.792Z,4.00
2018-06-13T15:49:06.608Z,5.27
2018-06-13T15:51:35.392Z,3.87
2018-06-13T15:54:04.512Z,4.27
2018-06-13T15:56:33.283Z,4.90
2018-06-13T15:59:02.473Z,5.10
2018-06-13T16:01:31.548Z,4.43
2018-06-13T16:04:00.324Z,4.90
2018-06-13T16:06:29.265Z,5.50
2018-06-13T16:08:58.033Z,5.40
2018-06-13T16:11:26.995Z,5.13
2018-06-13T16:13:55.852Z,5.67
2018-06-13T16:16:24.626Z,5.70
2018-06-13T16:18:53.785Z,4.33
2018-06-13T16:21:22.673Z,5.17
2018-06-13T16:23:51.591Z,5.70
2018-06-13T16:26:20.373Z,5.20
2018-06-13T16:28:49.232Z,5.50
2018-06-13T16:31:18.621Z,5.30
2018-06-13T16:33:47.528Z,5.90
2018-06-13T16:36:16.574Z,5.83
2018-06-13T16:38:45.662Z,4.73
2018-06-13T16:41:14.962Z,4.03
2018-06-13T16:43:44.209Z,5.27
2018-06-13T16:46:13.004Z,6.00
2018-06-13T16:48:42.050Z,4.40
2018-06-13T16:51:21.884Z,5.33
2018-06-13T16:54:01.792Z,4.80
2018-06-13T16:56:30.993Z,6.03
2018-06-13T16:59:00.392Z,5.17
2018-06-13T17:01:29.352Z,4.77
2018-06-13T17:03:58.370Z,5.50
2018-06-13T17:06:42.025Z,6.30
2018-06-13T17:09:20.670Z,4.30
2018-06-13T17:12:11.408Z,4.60
2018-06-13T17:15:04.435Z,4.63
2018-06-13T17:17:54.842Z,4.90
2018-06-13T17:20:25.328Z,4.37
2018-06-13T17:22:58.173Z,3.37
2018-06-13T17:25:28.080Z,4.30
2018-06-13T17:27:58.101Z,4.10
2018-06-13T17:30:28.016Z,4.50
2018-06-13T17:32:58.428Z,4.50
2018-06-13T17:35:27.612Z,4.47
2018-06-13T17:37:56.762Z,5.70
2018-06-13T17:40:25.996Z,5.90
2018-06-13T17:42:54.804Z,5.53
2018-06-13T17:45:24.060Z,5.03
2018-06-13T17:47:53.046Z,5.30
2018-06-13T17:50:22.042Z,5.43
2018-06-13T17:52:51.213Z,5.40
2018-06-13T17:55:20.132Z,5.50
2018-06-13T17:57:49.273Z,5.90
2018-06-13T18:00:18.124Z,6.23
2018-06-13T18:02:47.548Z,6.13
2018-06-13T18:05:16.981Z,7.33
2018-06-13T18:07:46.176Z,7.73
2018-06-13T18:10:15.444Z,7.80
2018-06-13T18:12:44.221Z,7.50
2018-06-13T18:15:13.145Z,5.87
2018-06-13T18:17:41.931Z,6.57
2018-06-13T18:20:10.749Z,6.00
2018-06-13T18:22:39.864Z,6.33
2018-06-13T18:25:08.760Z,5.90
2018-06-13T18:27:37.562Z,6.53
2018-06-13T18:30:06.444Z,5.90
2018-06-13T18:32:35.551Z,5.60
2018-06-13T18:35:04.381Z,6.03
2018-06-13T18:37:33.061Z,5.60
2018-06-13T18:40:01.912Z,7.10
2018-06-13T18:42:30.676Z,6.30
2018-06-13T18:44:59.372Z,6.23
2018-06-13T18:47:28.206Z,6.63
2018-06-13T18:49:56.895Z,6.80
2018-06-13T18:52:25.582Z,6.07
2018-06-13T18:54:54.472Z,6.27
2018-06-13T18:57:23.221Z,6.67
2018-06-13T18:59:52.028Z,7.40
2018-06-13T19:02:20.805Z,7.73
2018-06-13T19:04:49.612Z,8.13
2018-06-13T19:07:18.548Z,8.77
2018-06-13T19:09:47.353Z,7.50
2018-06-13T19:12:16.470Z,7.40
2018-06-13T19:14:45.236Z,7.93
2018-06-13T19:17:14.448Z,7.23
2018-06-13T19:19:43.256Z,6.90
2018-06-13T19:22:12.121Z,6.80
2018-06-13T19:24:41.112Z,7.20
2018-06-13T19:27:09.958Z,6.33
2018-06-13T19:29:39.094Z,7.00
2018-06-13T19:32:10.106Z,6.40
2018-06-13T19:34:39.028Z,7.00
2018-06-13T19:37:09.366Z,6.57
2018-06-13T19:39:38.238Z,7.50
2018-06-13T19:42:07.192Z,6.70
2018-06-13T19:44:36.511Z,7.60
2018-06-13T19:47:10.528Z,6.83
2018-06-13T19:49:39.270Z,6.13
2018-06-13T19:52:09.040Z,5.63
2018-06-13T19:54:43.056Z,5.90
2018-06-13T19:57:11.749Z,6.03
2018-06-13T19:59:41.700Z,5.80
2018-06-13T20:02:11.445Z,6.67
2018-06-13T20:04:45.672Z,6.43
2018-06-13T20:07:14.810Z,6.17
2018-06-13T20:09:43.722Z,6.20
2018-06-13T20:12:55.489Z,6.27
2018-06-13T20:15:29.881Z,6.40
2018-06-13T20:18:05.277Z,6.37
2018-06-13T20:20:41.062Z,6.97
2018-06-13T20:23:09.809Z,7.33
2018-06-13T20:25:44.481Z,6.00
2018-06-13T20:28:18.965Z,5.10
2018-06-13T20:30:52.929Z,5.53
2018-06-13T20:33:21.739Z,6.13
2018-06-13T20:35:50.752Z,5.47
2018-06-13T20:38:20.952Z,5.70
2018-06-13T20:40:50.420Z,5.60
2018-06-13T20:43:20.505Z,6.00
2018-06-13T20:45:50.157Z,6.77
2018-06-13T20:48:20.874Z,6.27
2018-06-13T20:50:50.641Z,6.07
2018-06-13T20:53:19.988Z,6.63
2018-06-13T20:55:48.706Z,5.40
2018-06-13T20:58:18.491Z,6.73
2018-06-13T21:00:48.800Z,6.20
2018-06-13T21:03:17.512Z,6.63
2018-06-13T21:05:46.499Z,6.97
2018-06-13T21:08:15.456Z,6.17
2018-06-13T21:10:44.482Z,5.90
2018-06-13T21:13:13.328Z,5.87
2018-06-13T21:15:42.105Z,6.00
2018-06-13T21:18:11.324Z,5.83
2018-06-13T21:20:40.002Z,6.70
2018-06-13T21:23:08.681Z,5.30
2018-06-13T21:25:37.418Z,6.60
2018-06-13T21:28:06.164Z,6.60
2018-06-13T21:30:35.049Z,5.93
2018-06-13T21:33:03.733Z,6.70
2018-06-13T21:35:32.444Z,6.33
2018-06-13T21:38:01.192Z,5.90
2018-06-13T21:40:29.892Z,6.20
2018-06-13T21:42:58.687Z,6.60
2018-06-13T21:45:27.525Z,5.87
2018-06-13T21:47:56.449Z,6.30
2018-06-13T21:50:25.292Z,6.70
2018-06-13T21:52:54.128Z,5.90
2018-06-13T21:55:23.137Z,6.60
2018-06-13T21:57:51.997Z,7.87
2018-06-13T22:00:20.817Z,8.00
2018-06-13T22:02:49.677Z,6.27
2018-06-13T22:05:18.444Z,6.20
2018-06-13T22:07:47.296Z,7.53
2018-06-13T22:10:16.125Z,6.10
2018-06-13T22:12:45.050Z,7.20
2018-06-13T22:15:23.531Z,8.10
2018-06-13T22:17:52.628Z,9.00
2018-06-13T22:20:21.436Z,8.30
2018-06-13T22:22:50.317Z,7.20
2018-06-13T22:25:19.253Z,7.00
2018-06-13T22:27:48.069Z,6.67
2018-06-13T22:30:17.281Z,8.10
2018-06-13T22:32:46.519Z,7.53
2018-06-13T22:35:15.273Z,7.40
2018-06-13T22:37:44.177Z,7.60
2018-06-13T22:40:12.985Z,8.27
2018-06-13T22:42:41.737Z,9.33
2018-06-13T22:45:10.785Z,9.73
2018-06-13T22:47:39.552Z,7.20
2018-06-13T22:50:08.415Z,7.47
2018-06-13T22:52:37.337Z,7.67
2018-06-13T22:55:06.196Z,9.13
2018-06-13T22:57:35.292Z,7.70
2018-06-13T23:00:04.273Z,7.67
2018-06-13T23:02:33.062Z,7.37
2018-06-13T23:05:01.789Z,7.23
2018-06-13T23:07:30.768Z,7.37
2018-06-13T23:09:59.672Z,7.80
2018-06-13T23:12:28.432Z,7.20
2018-06-13T23:14:57.321Z,8.77
2018-06-13T23:17:26.236Z,6.87
2018-06-13T23:19:55.101Z,7.47
2018-06-13T23:22:24.092Z,8.13
2018-06-13T23:24:52.873Z,7.50
2018-06-13T23:27:21.603Z,7.80
2018-06-13T23:29:50.380Z,7.50
2018-06-13T23:32:19.120Z,7.10
2018-06-13T23:34:47.876Z,7.97
2018-06-13T23:37:16.717Z,8.20
2018-06-13T23:39:45.397Z,7.47
2018-06-13T23:42:14.157Z,7.83
2018-06-13T23:44:42.828Z,7.73
2018-06-13T23:47:11.557Z,8.13
2018-06-13T23:49:40.241Z,8.00
2018-06-13T23:52:08.931Z,8.67
2018-06-13T23:54:37.752Z,9.10
2018-06-13T23:57:06.545Z,8.47
2018-06-13T23:59:35.717Z,8.83
